.
WxDataArchive / Data Records for 2006-11-19
2006-11-18 November 2006 2006-11-20

Data Records for Sunday, 19 November 2006

Time	Temp	Chill	HIndex	Humid	Dewpt	 Wind 	HiWind	WindDir	Rain 	Barom 
-----	----	-----	------	-----	-----	------	------	-------	-----	----- 
00:00	38.5	38.5	38.5	75	31.3	0	0	---	0.00	30.066 
00:05	38.5	38.5	38.5	75	31.3	0	0	---	0.00	30.066 
00:10	38.3	38.3	38.3	75	31.1	0	0	---	0.00	30.066 
00:15	38.2	38.2	38.2	76	31.3	0	0	---	0.00	30.067 
00:20	38.2	38.2	38.2	76	31.3	0	0	---	0.00	30.067 
00:25	38.0	38.0	38.0	76	31.1	0	1	0	0.00	30.067 
00:30	38.2	38.2	38.2	76	31.3	0	1	0	0.00	30.069 
00:35	38.2	38.2	38.2	76	31.3	0	1	0	0.00	30.069 
00:40	38.2	38.2	38.2	76	31.3	0	1	0	0.00	30.069 
00:45	38.2	38.2	38.2	76	31.3	0	1	0	0.00	30.068 
00:50	38.2	38.2	38.2	76	31.3	0	1	0	0.00	30.068 
00:55	38.0	38.0	38.0	76	31.1	0	1	0	0.00	30.068 
01:00	38.0	38.0	38.0	76	31.1	0	1	0	0.00	30.066 
01:05	38.0	38.0	38.0	76	31.1	0	2	0	0.00	30.066 
01:10	38.0	38.0	38.0	76	31.1	0	1	0	0.00	30.066 
01:15	37.9	37.9	37.9	76	31.0	0	1	0	0.00	30.064 
01:20	37.9	37.9	37.9	76	31.0	0	1	0	0.00	30.064 
01:25	37.9	37.9	37.9	76	31.0	0	2	338	0.00	30.064 
01:30	37.8	37.8	37.8	77	31.2	0	1	338	0.00	30.063 
01:35	37.8	37.8	37.8	76	30.9	0	2	338	0.00	30.063 
01:40	37.8	37.8	37.8	76	30.9	0	1	338	0.00	30.063 
01:45	37.6	37.6	37.6	77	31.1	0	1	338	0.00	30.062 
01:50	37.5	37.5	37.5	77	31.0	0	1	338	0.00	30.062 
01:55	37.2	37.2	37.2	77	30.7	0	2	315	0.00	30.062 
02:00	37.0	37.0	37.0	77	30.5	0	1	315	0.00	30.063 
02:05	36.9	36.9	36.9	77	30.4	0	1	315	0.00	30.063 
02:10	36.8	36.8	36.8	78	30.6	0	1	315	0.00	30.063 
02:15	36.6	36.6	36.6	78	30.4	0	1	315	0.00	30.065 
02:20	36.6	36.6	36.6	78	30.4	0	1	315	0.00	30.065 
02:25	36.5	36.5	36.5	79	30.6	0	0	---	0.00	30.065 
02:30	36.5	36.5	36.5	79	30.6	0	1	315	0.00	30.067 
02:35	36.3	36.3	36.3	79	30.4	0	1	315	0.00	30.067 
02:40	36.2	36.2	36.2	80	30.6	0	0	---	0.00	30.067 
02:45	36.2	36.2	36.2	80	30.6	0	1	315	0.00	30.074 
02:50	36.0	36.0	36.0	80	30.4	0	1	315	0.00	30.074 
02:55	36.0	36.0	36.0	80	30.4	0	0	---	0.00	30.074 
03:00	36.0	36.0	36.0	81	30.7	0	0	---	0.00	30.077 
03:05	35.9	35.9	35.9	81	30.6	0	0	---	0.00	30.077 
03:10	35.9	35.9	35.9	81	30.6	0	1	315	0.00	30.077 
03:15	36.0	36.0	36.0	81	30.7	0	1	315	0.00	30.079 
03:20	36.0	36.0	36.0	81	30.7	0	0	---	0.00	30.079 
03:25	36.0	36.0	36.0	81	30.7	0	0	---	0.00	30.079 
03:30	35.9	35.9	35.9	81	30.6	0	0	---	0.00	30.078 
03:35	35.9	35.9	35.9	82	31.0	0	0	---	0.00	30.078 
03:40	35.9	35.9	35.9	82	31.0	0	1	315	0.00	30.078 
03:45	35.9	35.9	35.9	82	31.0	0	0	---	0.00	30.079 
03:50	35.8	35.8	35.8	82	30.9	0	1	315	0.00	30.079 
03:55	35.8	35.8	35.8	82	30.9	0	1	315	0.00	30.079 
04:00	35.8	35.8	35.8	83	31.2	0	1	315	0.00	30.079 
04:05	35.8	35.8	35.8	83	31.2	0	0	---	0.00	30.079 
04:10	35.9	35.9	35.9	83	31.2	0	1	315	0.00	30.079 
04:15	35.9	35.9	35.9	83	31.2	0	1	315	0.00	30.082 
04:20	36.0	36.0	36.0	83	31.3	0	1	315	0.00	30.082 
04:25	36.0	36.0	36.0	83	31.3	0	1	315	0.00	30.082 
04:30	36.0	36.0	36.0	83	31.3	0	1	315	0.00	30.082 
04:35	36.0	36.0	36.0	84	31.6	0	0	---	0.00	30.082 
04:40	36.0	36.0	36.0	84	31.6	0	0	---	0.00	30.082 
04:45	36.0	36.0	36.0	85	31.9	0	1	315	0.00	30.084 
04:50	36.0	36.0	36.0	85	31.9	0	1	315	0.00	30.084 
04:55	35.9	35.9	35.9	86	32.1	0	0	---	0.00	30.084 
05:00	35.9	35.9	35.9	86	32.1	0	0	---	0.00	30.084 
05:05	35.9	35.9	35.9	86	32.1	0	0	---	0.00	30.084 
05:10	35.8	35.8	35.8	87	32.3	0	0	---	0.00	30.084 
05:15	35.8	35.8	35.8	87	32.3	0	0	---	0.00	30.088 
05:20	35.8	35.8	35.8	87	32.3	0	0	---	0.00	30.088 
05:25	35.8	35.8	35.8	87	32.3	0	1	315	0.00	30.088 
05:30	35.6	35.6	35.6	88	32.4	0	0	---	0.00	30.090 
05:35	35.6	35.6	35.6	88	32.4	0	0	---	0.00	30.090 
05:40	35.6	35.6	35.6	88	32.4	0	0	---	0.00	30.090 
05:45	35.5	35.5	35.5	88	32.3	0	0	---	0.00	30.095 
05:50	35.5	35.5	35.5	88	32.3	0	0	---	0.00	30.095 
05:55	35.5	35.5	35.5	88	32.3	0	1	315	0.00	30.095 
06:00	35.5	35.5	35.5	88	32.3	0	0	---	0.00	30.095 
06:05	35.5	35.5	35.5	89	32.6	0	0	---	0.00	30.095 
06:10	35.6	35.6	35.6	89	32.7	0	0	---	0.00	30.095 
06:15	35.6	35.6	35.6	89	32.7	0	0	---	0.00	30.097 
06:20	35.8	35.8	35.8	89	32.9	0	0	---	0.00	30.097 
06:25	35.8	35.8	35.8	89	32.9	0	1	315	0.00	30.097 
06:30	35.9	35.9	35.9	89	33.0	0	0	---	0.00	30.097 
06:35	35.9	35.9	35.9	89	33.0	0	1	315	0.00	30.097 
06:40	35.9	35.9	35.9	89	33.0	0	1	315	0.00	30.097 
06:45	35.9	35.9	35.9	89	33.0	0	1	315	0.00	30.098 
06:50	35.9	35.9	35.9	89	33.0	0	1	315	0.00	30.098 
06:55	36.0	36.0	36.0	90	33.4	0	1	315	0.00	30.098 
07:00	36.0	36.0	36.0	90	33.4	0	1	315	0.00	30.106 
07:05	36.0	36.0	36.0	90	33.4	0	1	315	0.00	30.106 
07:10	36.0	36.0	36.0	90	33.4	0	1	315	0.00	30.106 
07:15	36.2	36.2	36.2	90	33.6	0	1	315	0.00	30.111 
07:20	36.2	36.2	36.2	90	33.6	0	2	315	0.00	30.111 
07:25	36.2	36.2	36.2	90	33.6	0	1	315	0.00	30.111 
07:30	36.2	36.2	36.2	91	33.8	0	1	315	0.00	30.112 
07:35	36.2	36.2	36.2	91	33.8	0	2	315	0.00	30.112 
07:40	36.2	36.2	36.2	91	33.8	0	1	315	0.00	30.112 
07:45	36.3	36.3	36.3	91	33.9	0	1	315	0.00	30.115 
07:50	36.3	36.3	36.3	91	33.9	0	1	315	0.00	30.115 
07:55	36.3	36.3	36.3	91	33.9	0	1	315	0.00	30.115 
08:00	36.3	36.3	36.3	91	33.9	0	1	315	0.00	30.121 
08:05	36.3	36.3	36.3	91	33.9	0	2	338	0.00	30.121 
08:10	36.5	36.5	36.5	91	34.1	0	1	338	0.00	30.121 
08:15	36.5	36.5	36.5	91	34.1	0	1	315	0.00	30.125 
08:20	36.5	36.5	36.5	91	34.1	0	2	315	0.00	30.125 
08:25	36.5	36.5	36.5	90	33.9	0	2	315	0.00	30.125 
08:30	36.5	36.5	36.5	90	33.9	0	1	315	0.00	30.126 
08:35	36.6	36.6	36.6	90	33.9	0	1	315	0.00	30.126 
08:40	36.8	36.8	36.8	90	34.1	0	1	315	0.00	30.126 
08:45	36.8	36.8	36.8	90	34.1	0	1	315	0.00	30.132 
08:50	36.9	36.9	36.9	90	34.2	0	1	315	0.00	30.132 
08:55	37.0	37.0	37.0	89	34.1	0	2	338	0.00	30.132 
09:00	37.0	37.0	37.0	88	33.8	0	1	292	0.00	30.142 
09:05	37.0	37.0	37.0	86	33.2	0	2	338	0.00	30.142 
09:10	37.2	37.2	37.2	85	33.1	0	4	292	0.00	30.142 
09:15	37.5	37.5	37.5	85	33.4	0	2	292	0.00	30.143 
09:20	37.8	37.8	37.8	86	34.0	1	3	338	0.00	30.143 
09:25	38.2	38.2	38.2	84	33.8	1	4	0	0.00	30.143 
09:30	38.2	38.2	38.2	81	32.9	1	4	315	0.00	30.143 
09:35	38.3	38.3	38.3	80	32.7	1	5	338	0.00	30.143 
09:40	38.5	38.5	38.5	79	32.6	1	7	338	0.00	30.143 
09:45	38.9	38.9	38.9	79	33.0	1	4	22	0.00	30.143 
09:50	38.9	38.9	38.9	77	32.3	1	5	338	0.00	30.143 
09:55	38.9	38.9	38.9	74	31.3	2	4	0	0.00	30.143 
10:00	39.2	39.2	39.2	74	31.6	2	6	0	0.00	30.148 
10:05	39.3	39.3	39.3	73	31.4	1	4	338	0.00	30.148 
10:10	39.5	39.5	39.5	73	31.6	1	3	338	0.00	30.148 
10:15	39.6	39.6	39.6	73	31.7	1	3	45	0.00	30.154 
10:20	39.6	39.6	39.6	74	32.0	1	2	338	0.00	30.154 
10:25	39.5	39.5	39.5	73	31.6	1	4	338	0.00	30.154 
10:30	39.2	39.2	39.2	73	31.3	1	2	315	0.00	30.155 
10:35	39.3	39.3	39.3	73	31.4	0	2	315	0.00	30.155 
10:40	39.3	39.3	39.3	71	30.7	1	3	338	0.00	30.155 
10:45	39.3	39.3	39.3	71	30.7	1	3	315	0.00	30.157 
10:50	39.5	39.5	39.5	71	30.9	1	4	338	0.00	30.157 
10:55	39.5	39.5	39.5	73	31.6	0	4	292	0.00	30.157 
11:00	39.6	39.6	39.6	71	31.0	1	4	292	0.00	30.159 
11:05	39.5	39.5	39.5	71	30.9	1	4	292	0.00	30.159 
11:10	39.3	39.3	39.3	71	30.7	1	4	315	0.00	30.159 
11:15	39.6	39.6	39.6	70	30.6	1	3	338	0.00	30.160 
11:20	40.2	40.2	40.2	69	30.9	1	2	0	0.00	30.160 
11:25	40.6	40.6	40.6	66	30.1	2	6	22	0.00	30.160 
11:30	41.1	41.1	41.1	65	30.2	1	3	22	0.00	30.155 
11:35	41.2	41.2	41.2	64	30.0	1	5	0	0.00	30.155 
11:40	41.3	41.3	41.3	63	29.7	1	5	22	0.00	30.155 
11:45	41.6	41.6	41.6	62	29.6	0	2	338	0.00	30.150 
11:50	41.8	41.8	41.8	64	30.5	1	4	338	0.00	30.150 
11:55	41.9	41.9	41.9	62	29.8	1	4	292	0.00	30.150 
12:00	41.9	41.9	41.9	61	29.4	1	4	338	0.00	30.146 
12:05	41.8	41.8	41.8	57	27.7	2	6	338	0.00	30.146 
12:10	41.9	41.9	41.9	59	28.6	1	4	338	0.00	30.146 
12:15	41.9	41.9	41.9	59	28.6	1	4	338	0.00	30.144 
12:20	41.9	41.9	41.9	57	27.8	2	5	0	0.00	30.144 
12:25	41.6	41.6	41.6	58	27.9	1	5	338	0.00	30.144 
12:30	41.2	41.2	41.2	58	27.6	2	12	22	0.00	30.147 
12:35	41.2	41.2	41.2	57	27.1	2	5	315	0.00	30.147 
12:40	41.2	41.2	41.2	58	27.6	2	5	338	0.00	30.147 
12:45	41.3	41.3	41.3	59	28.1	1	4	292	0.00	30.142 
12:50	41.2	41.2	41.2	57	27.1	1	4	0	0.00	30.142 
12:55	40.8	40.8	40.8	59	27.6	2	5	0	0.00	30.142 
13:00	40.6	40.6	40.6	60	27.8	1	4	22	0.00	30.142 
13:05	40.6	40.6	40.6	61	28.2	1	4	338	0.00	30.142 
13:10	40.6	40.6	40.6	58	27.0	2	6	0	0.00	30.142 
13:15	40.5	40.5	40.5	56	26.1	2	5	315	0.00	30.135 
13:20	40.5	40.5	40.5	57	26.5	1	3	315	0.00	30.135 
13:25	40.5	40.5	40.5	57	26.5	1	3	315	0.00	30.135 
13:30	40.6	40.6	40.6	58	27.0	1	5	0	0.00	30.133 
13:35	41.1	41.1	41.1	56	26.6	1	2	0	0.00	30.133 
13:40	41.2	41.2	41.2	54	25.8	1	6	0	0.00	30.133 
13:45	41.2	41.2	41.2	54	25.8	1	4	338	0.00	30.128 
13:50	40.9	40.9	40.9	52	24.6	1	4	338	0.00	30.128 
13:55	40.9	40.9	40.9	51	24.2	1	6	292	0.00	30.128 
14:00	40.9	40.9	40.9	52	24.6	2	6	0	0.00	30.130 
14:05	40.8	40.8	40.8	51	24.1	1	5	315	0.00	30.130 
14:10	40.8	40.8	40.8	50	23.6	1	4	0	0.00	30.130 
14:15	40.8	40.8	40.8	50	23.6	1	5	0	0.00	30.129 
14:20	40.9	40.9	40.9	53	25.1	1	3	338	0.00	30.129 
14:25	41.1	41.1	41.1	52	24.8	2	7	292	0.00	30.129 
14:30	41.1	41.1	41.1	51	24.4	1	3	338	0.00	30.129 
14:35	40.9	40.9	40.9	52	24.6	1	3	0	0.00	30.129 
14:40	40.6	40.6	40.6	52	24.4	2	6	0	0.00	30.129 
14:45	40.3	40.3	40.3	52	24.1	1	3	0	0.00	30.128 
14:50	40.1	40.1	40.1	52	23.9	2	6	338	0.00	30.128 
14:55	39.9	39.9	39.9	52	23.7	2	6	338	0.00	30.128 
15:00	39.8	39.8	39.8	52	23.6	1	5	315	0.00	30.129 
15:05	39.6	39.6	39.6	52	23.4	1	4	0	0.00	30.129 
15:10	39.5	39.5	39.5	54	24.2	1	3	0	0.00	30.129 
15:15	39.3	39.3	39.3	53	23.6	2	6	292	0.00	30.130 
15:20	39.2	39.2	39.2	54	24.0	1	5	0	0.00	30.130 
15:25	39.2	39.2	39.2	55	24.4	1	2	338	0.00	30.130 
15:30	39.1	39.1	39.1	56	24.7	0	2	315	0.00	30.131 
15:35	39.1	39.1	39.1	55	24.3	0	2	315	0.00	30.131 
15:40	39.1	39.1	39.1	56	24.7	1	3	315	0.00	30.131 
15:45	39.1	39.1	39.1	57	25.2	1	3	0	0.00	30.130 
15:50	39.1	39.1	39.1	58	25.6	1	3	292	0.00	30.130 
15:55	39.1	39.1	39.1	56	24.7	2	6	270	0.00	30.130 
16:00	39.1	39.1	39.1	57	25.2	1	3	315	0.00	30.131 
16:05	38.9	38.9	38.9	55	24.1	1	4	315	0.00	30.131 
16:10	38.9	38.9	38.9	56	24.6	1	6	315	0.00	30.131 
16:15	38.9	38.9	38.9	57	25.0	1	3	315	0.00	30.133 
16:20	38.9	38.9	38.9	57	25.0	0	2	315	0.00	30.133 
16:25	38.9	38.9	38.9	57	25.0	0	2	338	0.00	30.133 
16:30	38.9	38.9	38.9	58	25.4	1	2	338	0.00	30.134 
16:35	38.8	38.8	38.8	57	24.9	0	3	0	0.00	30.134 
16:40	38.6	38.6	38.6	56	24.3	1	5	0	0.00	30.134 
16:45	38.6	38.6	38.6	57	24.7	0	2	22	0.00	30.139 
16:50	38.6	38.6	38.6	58	25.1	0	2	338	0.00	30.139 
16:55	38.3	38.3	38.3	59	25.2	0	2	315	0.00	30.139 
17:00	38.0	38.0	38.0	61	25.8	2	6	338	0.00	30.145 
17:05	37.6	37.6	37.6	62	25.8	1	5	0	0.00	30.145 
17:10	37.2	37.2	37.2	61	25.0	1	3	0	0.00	30.145 
17:15	37.0	37.0	37.0	62	25.2	1	3	315	0.00	30.148 
17:20	36.9	36.9	36.9	62	25.1	1	3	0	0.00	30.148 
17:25	36.9	36.9	36.9	63	25.5	1	4	315	0.00	30.148 
17:30	36.9	36.9	36.9	64	25.9	1	4	338	0.00	30.151 
17:35	36.8	36.8	36.8	63	25.4	1	3	0	0.00	30.151 
17:40	36.8	36.8	36.8	64	25.8	0	2	0	0.00	30.151 
17:45	36.6	36.6	36.6	65	26.0	1	4	45	0.00	30.156 
17:50	36.6	36.6	36.6	66	26.3	0	3	45	0.00	30.156 
17:55	36.5	36.5	36.5	66	26.2	0	2	338	0.00	30.156 
18:00	36.5	36.5	36.5	67	26.6	0	3	338	0.00	30.161 
18:05	36.3	36.3	36.3	67	26.4	0	1	0	0.00	30.161 
18:10	36.3	36.3	36.3	68	26.8	0	2	0	0.00	30.161 
18:15	36.2	36.2	36.2	68	26.7	0	1	0	0.00	30.163 
18:20	36.2	36.2	36.2	69	27.0	0	1	0	0.00	30.163 
18:25	36.0	36.0	36.0	69	26.8	0	1	0	0.00	30.163 
18:30	36.0	36.0	36.0	70	27.2	0	3	158	0.00	30.166 
18:35	35.9	35.9	35.9	70	27.1	0	2	112	0.00	30.166 
18:40	35.9	35.9	35.9	71	27.4	0	1	338	0.00	30.166 
18:45	35.8	35.8	35.8	71	27.3	0	2	338	0.00	30.166 
18:50	35.6	35.6	35.6	72	27.5	0	1	338	0.00	30.166 
18:55	35.5	35.5	35.5	72	27.4	0	1	315	0.00	30.166 
19:00	35.5	35.5	35.5	72	27.4	0	1	315	0.00	30.169 
19:05	35.5	35.5	35.5	73	27.7	0	1	338	0.00	30.169 
19:10	35.5	35.5	35.5	73	27.7	0	2	338	0.00	30.169 
19:15	35.5	35.5	35.5	73	27.7	0	1	338	0.00	30.173 
19:20	35.3	35.3	35.3	73	27.5	0	2	338	0.00	30.173 
19:25	35.3	35.3	35.3	72	27.2	0	2	0	0.00	30.173 
19:30	35.3	35.3	35.3	72	27.2	0	3	112	0.00	30.179 
19:35	35.2	35.2	35.2	72	27.1	0	3	338	0.00	30.179 
19:40	35.2	35.2	35.2	73	27.4	0	3	338	0.00	30.179 
19:45	35.2	35.2	35.2	73	27.4	0	3	112	0.00	30.182 
19:50	35.0	35.0	35.0	73	27.2	0	1	112	0.00	30.182 
19:55	35.0	35.0	35.0	73	27.2	0	2	68	0.00	30.182 
20:00	35.0	35.0	35.0	72	26.9	0	2	45	0.00	30.182 
20:05	35.0	35.0	35.0	72	26.9	0	1	22	0.00	30.182 
20:10	35.0	35.0	35.0	73	27.2	0	2	22	0.00	30.182 
20:15	35.0	35.0	35.0	73	27.2	0	5	22	0.00	30.184 
20:20	35.0	35.0	35.0	73	27.2	0	2	0	0.00	30.184 
20:25	35.0	35.0	35.0	73	27.2	0	1	0	0.00	30.184 
20:30	34.9	34.9	34.9	73	27.1	0	2	0	0.00	30.191 
20:35	34.9	34.9	34.9	73	27.1	0	2	0	0.00	30.191 
20:40	34.9	34.9	34.9	73	27.1	0	2	0	0.00	30.191 
20:45	34.9	34.9	34.9	73	27.1	0	2	0	0.00	30.192 
20:50	34.7	34.7	34.7	73	26.9	0	1	0	0.00	30.192 
20:55	34.7	34.7	34.7	73	26.9	0	1	0	0.00	30.192 
21:00	34.7	34.7	34.7	74	27.3	0	2	338	0.00	30.192 
21:05	34.7	34.7	34.7	74	27.3	0	2	338	0.00	30.192 
21:10	34.7	34.7	34.7	74	27.3	0	2	338	0.00	30.192 
21:15	34.7	34.7	34.7	75	27.6	0	1	338	0.00	30.192 
21:20	34.7	34.7	34.7	75	27.6	0	1	338	0.00	30.192 
21:25	34.7	34.7	34.7	76	27.9	0	1	338	0.00	30.192 
21:30	34.7	34.7	34.7	76	27.9	0	1	338	0.00	30.193 
21:35	34.6	34.6	34.6	77	28.1	0	2	338	0.00	30.193 
21:40	34.6	34.6	34.6	77	28.1	0	3	338	0.00	30.193 
21:45	34.6	34.6	34.6	77	28.1	1	4	270	0.00	30.194 
21:50	34.6	34.6	34.6	77	28.1	1	5	292	0.00	30.194 
21:55	34.4	34.4	34.4	76	27.6	1	3	0	0.00	30.194 
22:00	34.4	34.4	34.4	76	27.6	1	3	338	0.00	30.195 
22:05	34.4	34.4	34.4	75	27.3	0	3	338	0.00	30.195 
22:10	34.4	34.4	34.4	75	27.3	1	4	338	0.00	30.195 
22:15	34.4	34.4	34.4	74	27.0	1	4	270	0.00	30.194 
22:20	34.4	34.4	34.4	74	27.0	1	3	0	0.00	30.194 
22:25	34.3	34.3	34.3	74	26.9	1	3	0	0.00	30.194 
22:30	34.3	34.3	34.3	73	26.6	1	5	338	0.00	30.195 
22:35	34.3	34.3	34.3	73	26.6	1	4	22	0.00	30.195 
22:40	34.3	34.3	34.3	74	26.9	0	3	292	0.00	30.195 
22:45	34.1	34.1	34.1	74	26.7	1	4	292	0.00	30.196 
22:50	34.1	34.1	34.1	73	26.4	1	4	22	0.00	30.196 
22:55	34.1	34.1	34.1	73	26.4	1	3	338	0.00	30.196 
23:00	34.1	34.1	34.1	73	26.4	1	3	338	0.00	30.196 
23:05	34.1	34.1	34.1	74	26.7	1	3	270	0.00	30.196 
23:10	34.1	34.1	34.1	73	26.4	0	3	270	0.00	30.196 
23:15	34.1	34.1	34.1	73	26.4	1	3	338	0.00	30.195 
23:20	34.1	34.1	34.1	73	26.4	0	2	292	0.00	30.195 
23:25	34.1	34.1	34.1	73	26.4	1	2	315	0.00	30.195 
23:30	34.0	34.0	34.0	74	26.6	0	1	0	0.00	30.199 
23:35	33.8	33.8	33.8	73	26.1	1	2	22	0.00	30.199 
23:40	33.8	33.8	33.8	73	26.1	0	2	315	0.00	30.199 
23:45	33.5	33.5	33.5	74	26.1	0	3	338	0.00	30.203 
23:50	33.4	33.4	33.4	74	26.0	0	3	292	0.00	30.203 
23:55	33.2	33.2	33.2	74	25.8	0	2	292	0.00	30.203 

CoCoRaHS
IN-AL-39
A2 Web Hosting
Creative Commons License
GoDaddy
Look for:

loaded 2017-12-13 10:14:27 • last modified 2010-11-18 10:43:29
Privacy PolicyDisclaimer
• wx.awcolley.com is powered by PmWiki v.2002016 •
• all content (unless otherwise noted) © 2017 A W Colley